Time;durP1;ratioP1;P1;durP2;ratioP2;P2;SDS_P1;SDS_P2;PMS_P1;PMS_P2;Temp;Humidity;BMP_temperature;BMP_pressure;BME280_temperature;BME280_humidity;BME280_pressure;Samples;Min_cycle;Max_cycle;Signal;HPM_P1;HPM_P2
2021/11/15 00:01:13;;;;;;;66.40;35.28;;;;;;;4.84;96.78;100573.88;1714423;83;21051;-75
2021/11/15 00:03:43;;;;;;;61.13;34.25;;;;;;;4.84;96.62;100582.04;1716136;83;21474;-75
2021/11/15 00:06:09;;;;;;;69.00;35.52;;;;;;;4.84;96.62;100582.04;1729525;81;20975;-75
2021/11/15 00:08:38;;;;;;;66.15;34.63;;;;;;;4.83;96.57;100585.83;1727305;81;20963;-75
2021/11/15 00:11:07;;;;;;;71.42;35.45;;;;;;;4.83;96.75;100582.29;1724255;82;21095;-75
2021/11/15 00:13:34;;;;;;;64.72;34.25;;;;;;;4.82;96.73;100577.38;1720613;82;20914;-75
2021/11/15 00:16:02;;;;;;;70.57;36.35;;;;;;;4.81;96.73;100589.87;1723920;82;20891;-73
2021/11/15 00:18:30;;;;;;;70.50;35.23;;;;;;;4.81;96.71;100583.08;1731676;82;20887;-73
2021/11/15 00:21:01;;;;;;;76.70;39.33;;;;;;;4.80;96.76;100582.80;1724089;82;21481;-73
2021/11/15 00:23:29;;;;;;;70.57;35.80;;;;;;;4.81;96.84;100583.08;1729278;81;20907;-74
2021/11/15 00:25:57;;;;;;;77.10;35.98;;;;;;;4.79;96.74;100572.98;1731570;82;20978;-73
2021/11/15 00:28:27;;;;;;;72.08;36.23;;;;;;;4.76;96.70;100564.80;1731688;82;20867;-73
2021/11/15 00:30:55;;;;;;;78.78;36.75;;;;;;;4.80;96.69;100575.99;1727559;82;20872;-73
2021/11/15 00:33:23;;;;;;;70.55;36.45;;;;;;;4.79;96.65;100571.63;1713023;82;20912;-73
2021/11/15 00:35:49;;;;;;;72.82;35.55;;;;;;;4.78;96.62;100574.89;1721938;82;21879;-72
2021/11/15 00:38:19;;;;;;;71.30;36.48;;;;;;;4.77;96.63;100572.42;1719768;82;21435;-72
2021/11/15 00:40:46;;;;;;;73.02;35.80;;;;;;;4.77;96.64;100568.33;1714364;83;20939;-72
2021/11/15 00:43:13;;;;;;;75.65;37.40;;;;;;;4.76;96.60;100572.13;1694991;84;20963;-73
2021/11/15 00:45:46;;;;;;;71.90;35.33;;;;;;;4.76;96.71;100577.03;1727036;83;20907;-73
2021/11/15 00:48:15;;;;;;;66.50;34.90;;;;;;;4.76;96.73;100566.16;1727707;82;21190;-74
2021/11/15 00:50:43;;;;;;;73.10;34.55;;;;;;;4.78;97.06;100568.63;1718266;82;20941;-74
2021/11/15 00:53:13;;;;;;;65.67;32.60;;;;;;;4.78;96.76;100570.80;1713508;83;21657;-74
2021/11/15 00:55:41;;;;;;;65.97;34.00;;;;;;;4.79;96.80;100573.81;1715505;83;20931;-73
2021/11/15 00:58:08;;;;;;;72.32;33.20;;;;;;;4.77;96.71;100566.44;1730079;82;20915;-74
2021/11/15 01:00:41;;;;;;;67.72;36.25;;;;;;;4.77;96.71;100566.44;1721067;82;21102;-73
2021/11/15 01:03:12;;;;;;;71.90;35.65;;;;;;;4.78;96.65;100566.72;1695344;84;21534;-74
2021/11/15 01:05:48;;;;;;;72.72;33.80;;;;;;;4.78;96.61;100574.89;1730568;82;20966;-74
2021/11/15 01:08:15;;;;;;;62.50;32.75;;;;;;;4.76;96.66;100572.13;1722166;82;20947;-73
2021/11/15 01:10:44;;;;;;;67.55;33.08;;;;;;;4.75;96.75;100575.39;1690571;84;20967;-73
2021/11/15 01:13:11;;;;;;;68.35;35.55;;;;;;;4.74;96.79;100586.52;1696067;83;21167;-74
2021/11/15 01:15:39;;;;;;;67.37;35.83;;;;;;;4.76;96.79;100581.65;1731692;82;20974;-73
2021/11/15 01:18:08;;;;;;;72.90;37.38;;;;;;;4.75;96.62;100574.03;1716443;82;20904;-73
2021/11/15 01:20:36;;;;;;;68.28;34.50;;;;;;;4.75;96.62;100574.03;1714196;83;21010;-73
2021/11/15 01:23:03;;;;;;;67.62;34.95;;;;;;;4.76;96.75;100576.21;1697996;84;20919;-73
2021/11/15 01:25:32;;;;;;;74.55;38.25;;;;;;;4.74;96.80;100583.27;1698976;84;21135;-73
2021/11/15 01:28:00;;;;;;;80.90;39.55;;;;;;;4.78;96.82;100576.78;1699026;84;22001;-73
2021/11/15 01:30:29;;;;;;;75.42;39.18;;;;;;;4.77;96.64;100577.86;1700799;84;20967;-74
2021/11/15 01:32:57;;;;;;;77.80;38.17;;;;;;;4.77;96.49;100572.42;1701345;84;20950;-74
2021/11/15 01:35:26;;;;;;;78.22;38.45;;;;;;;4.78;96.24;100573.52;1725081;82;20904;-73
2021/11/15 01:37:53;;;;;;;67.90;34.75;;;;;;;4.78;96.24;100573.52;1722631;82;22009;-73
2021/11/15 01:40:26;;;;;;;72.67;36.28;;;;;;;4.77;96.13;100571.05;1725204;82;20931;-73
2021/11/15 01:42:55;;;;;;;68.50;34.30;;;;;;;4.69;96.26;100583.73;1723905;82;20903;-74
2021/11/15 01:45:24;;;;;;;72.32;36.95;;;;;;;4.69;96.26;100583.73;1728003;82;20930;-74
2021/11/15 01:47:59;;;;;;;73.10;37.03;;;;;;;4.67;96.41;100582.63;1720794;82;21010;-73
2021/11/15 01:50:25;;;;;;;70.30;36.58;;;;;;;4.72;96.68;100584.05;1729001;82;21097;-73
2021/11/15 01:52:54;;;;;;;62.10;32.45;;;;;;;4.76;96.71;100587.91;1723655;82;21019;-73
2021/11/15 01:55:22;;;;;;;72.27;34.55;;;;;;;4.77;96.75;100590.92;1717741;82;20920;-74
2021/11/15 01:57:48;;;;;;;66.92;33.42;;;;;;;4.82;96.61;100607.85;1731280;82;21477;-73
2021/11/15 02:00:29;;;;;;;66.97;34.60;;;;;;;4.83;96.49;100613.04;1731737;82;21421;-74
2021/11/15 02:02:57;;;;;;;72.45;37.05;;;;;;;4.84;96.41;100611.14;1729084;82;21134;-73
2021/11/15 02:05:23;;;;;;;73.52;38.58;;;;;;;4.84;96.56;100614.69;1731754;82;20899;-73
2021/11/15 02:07:51;;;;;;;75.47;40.12;;;;;;;4.83;96.28;100615.77;1728540;82;21474;-74
2021/11/15 02:10:18;;;;;;;76.17;39.03;;;;;;;4.83;96.31;100616.30;1727837;82;20923;-74
2021/11/15 02:12:44;;;;;;;87.80;39.55;;;;;;;4.81;96.17;100608.92;1731677;82;20887;-74
2021/11/15 02:15:12;;;;;;;68.92;34.10;;;;;;;4.81;96.34;100617.91;1723539;82;21107;-74
2021/11/15 02:17:40;;;;;;;76.50;36.28;;;;;;;4.80;96.36;100623.06;1724057;82;20959;-74
2021/11/15 02:20:25;;;;;;;70.17;34.78;;;;;;;4.78;96.37;100612.97;1721023;82;21507;-73
2021/11/15 02:22:52;;;;;;;58.87;30.57;;;;;;;4.79;96.29;100615.16;1711865;82;20943;-73
2021/11/15 02:25:22;;;;;;;70.62;36.10;;;;;;;4.77;96.43;100628.19;1725037;82;21482;-74
2021/11/15 02:27:49;;;;;;;69.65;35.85;;;;;;;4.74;96.38;100620.52;1716385;81;21080;-74
2021/11/15 02:30:18;;;;;;;75.80;35.45;;;;;;;4.73;96.37;100619.70;1729804;82;20856;-75
2021/11/15 02:32:46;;;;;;;77.58;36.17;;;;;;;4.77;96.30;100628.19;1731911;82;20983;-75
2021/11/15 02:35:13;;;;;;;79.82;37.42;;;;;;;4.77;96.30;100628.19;1731817;82;20943;-74
2021/11/15 02:37:40;;;;;;;74.40;36.83;;;;;;;4.77;96.53;100633.63;1725352;82;21438;-74
2021/11/15 02:40:08;;;;;;;75.60;35.55;;;;;;;4.79;96.55;100628.75;1726448;82;21089;-73
2021/11/15 02:42:37;;;;;;;62.95;33.58;;;;;;;4.79;96.55;100628.75;1721106;82;20918;-72
2021/11/15 02:45:05;;;;;;;71.35;34.98;;;;;;;4.77;96.38;100615.94;1722916;82;20916;-72
2021/11/15 02:47:32;;;;;;;71.10;35.05;;;;;;;4.78;96.38;100625.21;1723744;82;20980;-72
2021/11/15 02:49:59;;;;;;;67.62;34.78;;;;;;;4.77;96.58;100632.27;1730554;82;20967;-71
2021/11/15 02:52:25;;;;;;;74.30;35.30;;;;;;;4.78;96.46;100628.47;1693991;84;21057;-71
2021/11/15 02:54:57;;;;;;;69.25;34.27;;;;;;;4.79;96.30;100636.92;1719093;83;20892;-72
2021/11/15 02:57:20;;;;;;;68.02;35.35;;;;;;;4.79;96.30;100636.92;1721760;82;21023;-71
2021/11/15 02:59:47;;;;;;;75.47;34.85;;;;;;;4.81;96.47;100651.09;1722866;82;21039;-71
2021/11/15 03:02:14;;;;;;;66.57;33.05;;;;;;;4.80;96.34;100651.63;1724897;82;21506;-71
2021/11/15 03:04:43;;;;;;;69.53;34.45;;;;;;;4.80;96.29;100658.97;1723129;82;21786;-72
2021/11/15 03:07:09;;;;;;;71.80;34.53;;;;;;;4.79;96.31;100657.32;1729732;81;20891;-71
2021/11/15 03:09:38;;;;;;;65.47;33.20;;;;;;;4.77;96.29;100656.75;1720986;81;20972;-72
2021/11/15 03:12:05;;;;;;;65.52;32.98;;;;;;;4.76;96.32;100668.17;1697689;82;20967;-71
2021/11/15 03:14:34;;;;;;;68.47;34.38;;;;;;;4.74;96.45;100667.59;1691109;84;20921;-71
2021/11/15 03:17:00;;;;;;;70.92;34.92;;;;;;;4.74;96.65;100658.07;1716800;83;21104;-71
2021/11/15 03:19:26;;;;;;;70.42;34.20;;;;;;;4.75;96.58;100661.62;1720879;82;20856;-71
2021/11/15 03:21:53;;;;;;;71.22;33.92;;;;;;;4.77;96.60;100667.63;1711599;83;20907;-70
2021/11/15 03:24:19;;;;;;;67.27;34.75;;;;;;;4.77;96.65;100668.98;1692431;83;20943;-70
2021/11/15 03:26:46;;;;;;;70.35;35.03;;;;;;;4.76;96.69;100664.63;1692447;84;20956;-70
2021/11/15 03:29:12;;;;;;;69.17;33.80;;;;;;;4.76;96.57;100672.25;1713796;83;21171;-70
2021/11/15 03:31:39;;;;;;;65.62;33.40;;;;;;;4.75;96.59;100666.52;1721021;83;20951;-71
2021/11/15 03:34:11;;;;;;;71.47;34.00;;;;;;;4.76;96.60;100670.06;1719202;81;20960;-70
2021/11/15 03:36:39;;;;;;;69.10;34.35;;;;;;;4.74;96.69;100661.33;1711098;83;20960;-70
2021/11/15 03:39:07;;;;;;;67.42;32.80;;;;;;;4.74;96.81;100677.11;1691366;84;21479;-71
2021/11/15 03:41:37;;;;;;;67.12;34.45;;;;;;;4.74;97.00;100677.65;1721256;82;21184;-71
2021/11/15 03:44:04;;;;;;;70.10;34.58;;;;;;;4.74;97.00;100681.73;1723647;82;20855;-72
2021/11/15 03:46:33;;;;;;;65.00;33.28;;;;;;;4.73;96.77;100676.00;1716591;82;20967;-73
2021/11/15 03:49:00;;;;;;;64.35;32.80;;;;;;;4.73;96.77;100676.00;1721464;83;21434;-71
2021/11/15 03:51:26;;;;;;;76.60;35.65;;;;;;;4.73;97.01;100680.08;1725033;82;21446;-72
2021/11/15 03:53:53;;;;;;;71.12;34.20;;;;;;;4.73;97.06;100680.08;1699677;83;21112;-71
2021/11/15 03:56:23;;;;;;;67.03;32.93;;;;;;;4.72;97.12;100678.44;1730539;83;21442;-71
2021/11/15 03:58:50;;;;;;;69.12;34.53;;;;;;;4.69;97.10;100672.13;1724491;82;21407;-71
2021/11/15 04:01:16;;;;;;;69.20;34.92;;;;;;;4.72;97.15;100679.80;1722555;82;20950;-71
2021/11/15 04:03:45;;;;;;;71.97;35.23;;;;;;;4.70;97.21;100673.78;1697465;84;21443;-71
2021/11/15 04:06:27;;;;;;;73.83;36.03;;;;;;;4.71;97.31;100673.53;1692764;84;21099;-72
2021/11/15 04:08:56;;;;;;;71.80;35.08;;;;;;;4.71;97.31;100674.89;1728280;82;20939;-71
2021/11/15 04:11:24;;;;;;;71.67;35.43;;;;;;;4.69;97.30;100674.85;1690040;84;20944;-71
2021/11/15 04:13:55;;;;;;;68.67;35.25;;;;;;;4.69;97.30;100674.85;1670554;84;20951;-71
2021/11/15 04:16:22;;;;;;;73.85;34.78;;;;;;;4.70;97.35;100679.22;1694192;83;20948;-71
2021/11/15 04:18:56;;;;;;;72.42;36.38;;;;;;;4.72;97.34;100695.58;1699458;83;21769;-72
2021/11/15 04:21:22;;;;;;;73.80;36.53;;;;;;;4.72;97.24;100692.86;1699390;83;21443;-72
2021/11/15 04:23:48;;;;;;;75.20;35.05;;;;;;;4.72;97.21;100691.50;1716200;83;21015;-71
2021/11/15 04:26:15;;;;;;;75.00;36.65;;;;;;;4.71;97.26;100695.83;1726901;83;20884;-71
2021/11/15 04:28:41;;;;;;;80.97;37.40;;;;;;;4.72;97.15;100696.12;1730657;82;20957;-70
2021/11/15 04:31:08;;;;;;;73.45;37.70;;;;;;;4.71;97.19;100713.51;1721025;82;21730;-72
2021/11/15 04:33:35;;;;;;;75.40;38.28;;;;;;;4.68;97.33;100709.39;1727088;81;20955;-72
2021/11/15 04:36:01;;;;;;;80.92;37.17;;;;;;;4.70;97.43;100726.28;1724770;82;21387;-72
2021/11/15 04:38:27;;;;;;;69.77;37.13;;;;;;;4.69;97.13;100725.17;1694521;84;21506;-72
2021/11/15 04:40:54;;;;;;;79.53;39.53;;;;;;;4.69;97.13;100725.17;1721980;82;20999;-72
2021/11/15 04:43:20;;;;;;;77.15;35.43;;;;;;;4.74;97.51;100729.33;1698048;84;21053;-72
2021/11/15 04:45:47;;;;;;;84.62;38.65;;;;;;;4.78;97.40;100738.65;1715282;82;21057;-72
2021/11/15 04:48:14;;;;;;;92.60;36.65;;;;;;;4.78;97.40;100738.65;1696232;82;20944;-73
2021/11/15 04:50:40;;;;;;;83.78;38.35;;;;;;;4.77;97.27;100742.44;1700131;84;20971;-73
2021/11/15 04:53:07;;;;;;;76.87;39.48;;;;;;;4.78;97.33;100749.53;1691712;84;20912;-73
2021/11/15 04:55:34;;;;;;;96.53;41.35;;;;;;;4.78;97.30;100750.89;1691505;84;21087;-72
2021/11/15 04:58:02;;;;;;;87.57;42.27;;;;;;;4.78;97.41;100752.25;1691387;84;20896;-71
2021/11/15 05:00:30;;;;;;;92.95;45.90;;;;;;;4.78;97.41;100757.69;1683787;84;20977;-70
2021/11/15 05:02:57;;;;;;;101.75;43.58;;;;;;;4.76;97.39;100763.38;1704673;82;21439;-71
2021/11/15 05:05:24;;;;;;;99.20;44.38;;;;;;;4.72;97.52;100762.77;1722852;81;20929;-71
2021/11/15 05:07:53;;;;;;;98.42;47.48;;;;;;;4.67;98.16;100774.92;1740204;81;21518;-71
2021/11/15 05:10:21;;;;;;;96.17;46.10;;;;;;;4.67;98.16;100774.92;1702335;82;20916;-72
2021/11/15 05:12:50;;;;;;;105.50;49.45;;;;;;;4.65;98.42;100778.70;1692016;84;20989;-70
2021/11/15 05:15:20;;;;;;;95.92;48.23;;;;;;;4.66;98.48;100783.61;1686009;84;20959;-72
2021/11/15 05:17:47;;;;;;;102.22;48.10;;;;;;;4.66;98.48;100783.61;1694781;84;20856;-73
2021/11/15 05:20:14;;;;;;;100.90;48.63;;;;;;;4.64;98.46;100791.19;1699484;84;21813;-74
2021/11/15 05:22:40;;;;;;;97.78;48.13;;;;;;;4.64;98.86;100792.02;1697659;84;21443;-72
2021/11/15 05:25:07;;;;;;;102.78;48.08;;;;;;;4.64;98.86;100792.02;1698109;84;21487;-72
2021/11/15 05:27:34;;;;;;;113.60;50.38;;;;;;;4.65;99.12;100793.67;1697243;84;20947;-72
2021/11/15 05:30:04;;;;;;;104.87;49.48;;;;;;;4.69;99.34;100793.17;1732009;81;20954;-72
2021/11/15 05:32:32;;;;;;;104.60;48.17;;;;;;;4.69;99.29;100796.72;1711001;82;21054;-73
2021/11/15 05:34:58;;;;;;;106.72;52.58;;;;;;;4.68;99.32;100799.69;1679178;83;20916;-72
2021/11/15 05:37:24;;;;;;;104.38;50.00;;;;;;;4.68;99.32;100799.69;1716526;81;20943;-73
2021/11/15 05:39:51;;;;;;;107.80;50.92;;;;;;;4.63;99.35;100797.17;1712498;81;20909;-72
2021/11/15 05:42:17;;;;;;;107.25;49.75;;;;;;;4.63;99.40;100805.33;1723800;81;20995;-72
2021/11/15 05:44:44;;;;;;;102.20;49.03;;;;;;;4.64;99.48;100813.78;1715866;81;21823;-71
2021/11/15 05:47:10;;;;;;;108.65;50.83;;;;;;;4.65;99.68;100820.05;1727519;81;21470;-73
2021/11/15 05:49:37;;;;;;;103.12;47.83;;;;;;;4.65;99.76;100820.05;1715415;81;21461;-73
2021/11/15 05:52:04;;;;;;;101.55;47.95;;;;;;;4.64;99.90;100828.73;1725542;81;20927;-76
2021/11/15 05:54:32;;;;;;;104.83;47.60;;;;;;;4.67;99.98;100835.59;1721556;82;21487;-72
2021/11/15 05:56:58;;;;;;;99.55;48.70;;;;;;;4.69;99.93;100830.72;1721329;83;21110;-75
2021/11/15 05:59:25;;;;;;;108.67;51.58;;;;;;;4.71;99.81;100840.00;1723025;82;20895;-72
2021/11/15 06:01:52;;;;;;;105.07;50.05;;;;;;;4.70;100.00;100841.07;1724670;82;21001;-72
2021/11/15 06:04:18;;;;;;;102.95;47.75;;;;;;;4.70;100.00;100841.07;1726570;82;20909;-71
2021/11/15 06:06:45;;;;;;;116.50;51.63;;;;;;;4.71;100.00;100850.34;1719567;82;20904;-72
2021/11/15 06:09:11;;;;;;;118.62;52.65;;;;;;;4.71;100.00;100850.34;1716826;82;21041;-71
2021/11/15 06:11:38;;;;;;;122.65;54.85;;;;;;;4.74;100.00;100851.75;1716987;83;20928;-70
2021/11/15 06:14:05;;;;;;;107.80;49.10;;;;;;;4.76;100.00;100857.23;1716397;82;20948;-71
2021/11/15 06:16:31;;;;;;;116.25;53.42;;;;;;;4.77;100.00;100852.09;1712354;82;20903;-69
2021/11/15 06:18:58;;;;;;;113.15;52.50;;;;;;;4.77;100.00;100857.53;1716776;82;20884;-70
2021/11/15 06:21:24;;;;;;;124.92;52.27;;;;;;;4.79;100.00;100863.55;1724212;82;21807;-72
2021/11/15 06:23:51;;;;;;;112.92;52.03;;;;;;;4.79;100.00;100862.19;1727873;81;21537;-70
2021/11/15 06:26:17;;;;;;;120.97;55.28;;;;;;;4.83;100.00;100861.16;1715209;82;21473;-67
2021/11/15 06:28:47;;;;;;;122.28;53.68;;;;;;;4.84;100.00;100867.72;1713256;83;20967;-70
2021/11/15 06:31:13;;;;;;;122.17;54.15;;;;;;;4.88;100.00;100863.97;1708351;81;20854;-74
2021/11/15 06:33:41;;;;;;;127.67;55.30;;;;;;;4.88;100.00;100863.97;1711596;81;21099;-76
2021/11/15 06:36:08;;;;;;;127.10;54.63;;;;;;;4.87;100.00;100873.20;1708994;81;20966;-72
2021/11/15 06:38:34;;;;;;;111.95;48.13;;;;;;;4.87;100.00;100875.92;1694732;83;20935;-69
2021/11/15 06:41:01;;;;;;;106.32;51.25;;;;;;;4.87;100.00;100882.19;1698464;82;20984;-69
2021/11/15 06:43:27;;;;;;;127.20;56.70;;;;;;;4.88;100.00;100886.56;1722623;81;20930;-76
2021/11/15 06:45:54;;;;;;;129.35;54.25;;;;;;;4.89;100.00;100888.75;1703347;81;21191;-73
2021/11/15 06:48:20;;;;;;;127.35;55.50;;;;;;;4.89;100.00;100890.94;1718835;81;21043;-71
2021/11/15 06:50:49;;;;;;;119.80;53.28;;;;;;;4.90;100.00;100891.23;1722366;81;20974;-70
2021/11/15 06:53:15;;;;;;;119.22;52.33;;;;;;;4.90;100.00;100891.23;1694538;82;20927;-67
2021/11/15 06:55:42;;;;;;;127.60;54.95;;;;;;;4.94;100.00;100895.64;1722497;81;20955;-68
2021/11/15 06:58:09;;;;;;;110.80;51.15;;;;;;;4.95;100.00;100889.13;1710822;82;21102;-72
2021/11/15 07:00:35;;;;;;;122.02;53.98;;;;;;;4.95;100.00;100892.67;1714566;81;20911;-68
2021/11/15 07:03:02;;;;;;;118.25;53.48;;;;;;;4.96;100.00;100896.22;1729250;81;20942;-67
2021/11/15 07:05:29;;;;;;;115.35;52.03;;;;;;;4.99;100.00;100890.29;1708694;81;20905;-70
2021/11/15 07:07:55;;;;;;;121.20;52.83;;;;;;;4.97;100.00;100891.89;1697597;81;21509;-69
2021/11/15 07:10:22;;;;;;;114.47;51.08;;;;;;;4.97;100.00;100891.89;1699007;82;21093;-69
2021/11/15 07:12:49;;;;;;;126.07;55.55;;;;;;;5.03;100.00;100901.51;1693958;82;20931;-70
2021/11/15 07:15:16;;;;;;;125.47;55.88;;;;;;;5.04;100.00;100904.52;1691963;84;20947;-70
2021/11/15 07:17:43;;;;;;;122.90;53.42;;;;;;;5.05;100.00;100899.37;1711765;82;20968;-71
2021/11/15 07:20:10;;;;;;;116.15;51.88;;;;;;;5.07;100.00;100914.38;1716341;82;20931;-71
2021/11/15 07:22:37;;;;;;;123.47;55.12;;;;;;;5.11;100.00;100920.16;1725306;82;21734;-71
2021/11/15 07:25:04;;;;;;;116.45;53.85;;;;;;;5.12;100.00;100921.27;1717244;82;21494;-70
2021/11/15 07:27:31;;;;;;;120.60;52.88;;;;;;;5.13;100.00;100922.09;1732041;82;21010;-71
2021/11/15 07:29:57;;;;;;;124.65;53.30;;;;;;;5.14;100.00;100923.22;1731333;82;21426;-71
2021/11/15 07:32:24;;;;;;;125.50;56.60;;;;;;;5.16;100.00;100929.77;1715714;82;21517;-71
2021/11/15 07:34:51;;;;;;;99.90;48.10;;;;;;;5.17;100.00;100927.34;1730142;82;21783;-75
2021/11/15 07:37:17;;;;;;;108.67;49.70;;;;;;;5.18;100.00;100936.62;1699231;84;20985;-74
2021/11/15 07:39:44;;;;;;;114.85;51.70;;;;;;;5.21;99.98;100934.73;1698239;84;21083;-70
2021/11/15 07:42:15;;;;;;;117.67;52.48;;;;;;;5.23;99.95;100944.84;1691603;84;20895;-70
2021/11/15 07:44:42;;;;;;;104.35;49.10;;;;;;;5.27;99.75;100942.45;1698787;83;20915;-70
2021/11/15 07:47:09;;;;;;;108.85;48.42;;;;;;;5.27;99.75;100942.45;1691718;84;21205;-70
2021/11/15 07:49:35;;;;;;;116.73;50.90;;;;;;;5.28;99.56;100943.58;1697213;83;20931;-70
2021/11/15 07:52:02;;;;;;;110.17;49.93;;;;;;;5.30;99.54;100945.52;1694270;84;20943;-70
2021/11/15 07:54:31;;;;;;;103.45;49.98;;;;;;;5.31;99.44;100945.80;1688739;84;20943;-69
2021/11/15 07:56:58;;;;;;;111.60;49.90;;;;;;;5.34;99.41;100946.38;1697049;84;20955;-74
2021/11/15 07:59:25;;;;;;;107.25;50.10;;;;;;;5.38;99.14;100948.36;1693393;84;21130;-71
2021/11/15 08:01:51;;;;;;;102.95;49.18;;;;;;;5.40;98.71;100951.66;1693607;84;20900;-80
2021/11/15 08:04:18;;;;;;;119.00;53.23;;;;;;;5.41;98.63;100952.48;1686948;84;20977;-71
2021/11/15 08:06:45;;;;;;;121.80;54.27;;;;;;;5.43;98.49;100951.17;1684277;83;20911;-74
2021/11/15 08:09:11;;;;;;;112.08;51.90;;;;;;;5.45;98.37;100961.28;1695702;84;20943;-74
2021/11/15 08:11:38;;;;;;;102.70;50.03;;;;;;;5.48;98.26;100961.33;1693627;83;21190;-72
2021/11/15 08:14:04;;;;;;;111.90;50.92;;;;;;;5.53;98.47;100961.41;1690801;83;20924;-79
2021/11/15 08:16:32;;;;;;;103.27;48.20;;;;;;;5.57;98.18;100968.84;1689912;82;21518;-73
2021/11/15 08:18:59;;;;;;;108.67;49.90;;;;;;;5.60;97.77;100966.16;1689416;82;21000;-73
2021/11/15 08:21:26;;;;;;;107.65;47.15;;;;;;;5.61;97.52;100970.53;1696724;83;20939;-74
2021/11/15 08:23:53;;;;;;;104.50;49.38;;;;;;;5.60;97.38;100980.59;1697235;82;21854;-72
2021/11/15 08:26:46;;;;;;;96.90;46.50;;;;;;;5.63;96.95;100979.28;1723197;82;21565;-73
2021/11/15 08:29:14;;;;;;;92.97;43.75;;;;;;;5.64;96.86;100980.93;1723055;82;20857;-77
2021/11/15 08:31:42;;;;;;;87.08;43.68;;;;;;;5.70;96.48;100987.28;1713993;83;20855;-74
2021/11/15 08:34:08;;;;;;;102.27;48.20;;;;;;;5.70;96.16;100992.20;1674503;83;20986;-70
2021/11/15 08:36:35;;;;;;;96.72;45.52;;;;;;;5.72;95.90;100995.50;1714970;83;21695;-86
2021/11/15 08:39:13;;;;;;;92.22;45.70;;;;;;;5.72;95.70;100998.22;1687852;83;20892;-81
2021/11/15 08:41:45;;;;;;;94.30;44.58;;;;;;;5.74;95.46;100997.44;1701255;82;21003;-81
2021/11/15 08:44:11;;;;;;;97.47;44.20;;;;;;;5.75;95.03;100999.09;1711243;83;20895;-78
2021/11/15 08:46:38;;;;;;;85.30;45.45;;;;;;;5.75;94.80;100999.63;1722596;82;20955;-71
2021/11/15 08:49:08;;;;;;;96.53;45.92;;;;;;;5.78;94.77;101008.64;1723288;82;21150;-71
2021/11/15 08:51:37;;;;;;;88.60;42.73;;;;;;;5.82;94.66;101005.70;1716073;83;21478;-72
2021/11/15 08:54:06;;;;;;;78.42;42.10;;;;;;;5.84;94.38;101003.02;1726024;83;20892;-75
2021/11/15 08:56:32;;;;;;;84.37;42.80;;;;;;;5.88;94.29;101002.81;1705307;82;20936;-72
2021/11/15 08:58:59;;;;;;;96.40;46.18;;;;;;;5.93;94.03;101001.56;1719867;82;20991;-69
2021/11/15 09:01:26;;;;;;;98.62;43.48;;;;;;;6.00;93.67;101004.65;1725162;82;21184;-73
2021/11/15 09:03:53;;;;;;;93.92;42.13;;;;;;;6.06;93.37;101000.92;1724672;81;21684;-72
2021/11/15 09:06:20;;;;;;;88.82;44.13;;;;;;;6.11;92.90;101004.55;1691623;84;21429;-83
2021/11/15 09:08:50;;;;;;;93.55;43.23;;;;;;;6.18;91.99;101005.73;1725339;82;20902;-67
2021/11/15 09:11:17;;;;;;;85.47;41.98;;;;;;;6.23;91.81;101001.72;1723221;81;20916;-70
2021/11/15 09:13:44;;;;;;;80.25;41.55;;;;;;;6.29;91.34;101008.89;1692837;84;21191;-68
2021/11/15 09:16:12;;;;;;;77.12;39.30;;;;;;;6.35;90.70;101002.97;1721219;82;21490;-67
2021/11/15 09:18:43;;;;;;;73.15;38.88;;;;;;;6.39;89.92;101001.36;1724232;82;20927;-72
2021/11/15 09:21:10;;;;;;;74.58;38.02;;;;;;;6.41;89.49;101004.12;1690273;84;20983;-69
2021/11/15 09:23:40;;;;;;;79.27;37.40;;;;;;;6.46;89.04;101001.45;1695111;84;21542;-75
2021/11/15 09:26:11;;;;;;;82.97;41.65;;;;;;;6.53;87.88;101010.83;1695522;84;21255;-70
2021/11/15 09:28:38;;;;;;;81.42;39.70;;;;;;;6.54;87.52;101006.48;1695476;84;20907;-71
2021/11/15 09:31:05;;;;;;;80.10;40.08;;;;;;;6.58;86.65;101012.25;1694092;84;20892;-71
2021/11/15 09:33:32;;;;;;;73.90;40.08;;;;;;;6.61;86.67;101012.56;1693432;84;21478;-71
2021/11/15 09:35:59;;;;;;;67.42;35.80;;;;;;;6.67;86.25;101012.63;1697468;83;20959;-74
2021/11/15 09:38:28;;;;;;;65.42;35.55;;;;;;;6.74;85.90;101010.00;1692546;84;21128;-76
2021/11/15 09:41:01;;;;;;;72.75;37.10;;;;;;;6.82;84.42;101008.19;1686711;84;20908;-79
2021/11/15 09:43:37;;;;;;;72.03;35.60;;;;;;;6.89;84.04;101012.09;1734378;81;21516;-76
2021/11/15 09:46:13;;;;;;;72.10;36.45;;;;;;;6.93;83.30;101011.28;1695262;81;20964;-76
2021/11/15 09:48:45;;;;;;;78.75;36.05;;;;;;;6.96;82.69;101014.88;1704584;80;20900;-70
2021/11/15 09:51:17;;;;;;;65.30;35.20;;;;;;;7.00;82.86;101016.55;1651137;85;21226;-71
2021/11/15 09:53:47;;;;;;;56.92;30.77;;;;;;;7.07;81.79;101011.72;1704970;81;20884;-71
2021/11/15 09:56:23;;;;;;;68.15;31.65;;;;;;;7.12;80.48;101008.21;1707658;81;20986;-76
2021/11/15 09:59:00;;;;;;;59.50;31.45;;;;;;;7.14;79.64;101010.14;1723180;81;20956;-69
2021/11/15 10:01:29;;;;;;;62.62;32.75;;;;;;;7.16;79.21;101006.08;1696171;83;20889;-73
2021/11/15 10:04:02;;;;;;;59.25;30.85;;;;;;;7.22;78.71;101011.05;1722170;82;21265;-71
2021/11/15 10:06:29;;;;;;;51.02;26.90;;;;;;;7.22;76.87;101011.88;1698585;82;20991;-71
2021/11/15 10:09:00;;;;;;;59.77;31.23;;;;;;;7.27;77.49;101007.83;1671925;82;21450;-73
2021/11/15 10:11:44;;;;;;;55.67;30.88;;;;;;;7.44;77.37;101017.82;1690990;83;20879;-71
2021/11/15 10:14:13;;;;;;;58.65;31.00;;;;;;;7.65;77.07;101015.52;1717924;82;20919;-70
2021/11/15 10:16:59;;;;;;;65.03;33.65;;;;;;;7.83;76.05;101019.23;1730623;82;21131;-74
2021/11/15 10:19:26;;;;;;;63.13;30.60;;;;;;;7.89;74.88;101029.12;1729580;82;20946;-72
2021/11/15 10:22:00;;;;;;;62.08;30.60;;;;;;;7.85;74.56;101033.46;1726096;80;20826;-70
2021/11/15 10:24:41;;;;;;;60.05;31.40;;;;;;;7.80;74.01;101025.76;1727926;81;20863;-76
2021/11/15 10:27:24;;;;;;;58.30;30.88;;;;;;;7.77;73.90;101029.84;1732513;81;36113;-68
2021/11/15 10:29:51;;;;;;;56.80;29.15;;;;;;;7.87;73.97;101031.29;1719915;82;21428;-71
2021/11/15 10:32:28;;;;;;;62.13;31.85;;;;;;;8.38;73.56;101033.01;1719648;82;20976;-69
2021/11/15 10:34:59;;;;;;;61.13;30.80;;;;;;;9.04;71.82;101033.82;1713115;82;20900;-69
2021/11/15 10:37:31;;;;;;;52.78;27.35;;;;;;;9.71;70.12;101026.79;1722138;81;20963;-72
2021/11/15 10:40:10;;;;;;;49.23;26.20;;;;;;;10.49;67.73;101031.33;1717084;81;20936;-74
2021/11/15 10:42:45;;;;;;;46.75;25.23;;;;;;;11.15;64.69;101037.91;1729355;81;21081;-68
2021/11/15 10:45:16;;;;;;;45.92;25.80;;;;;;;11.38;61.25;101031.45;1723892;81;20927;-68
2021/11/15 10:47:47;;;;;;;52.43;27.87;;;;;;;11.14;59.39;101032.14;1690318;84;20932;-70
2021/11/15 10:50:43;;;;;;;51.80;29.05;;;;;;;10.71;59.92;101035.66;1724117;81;20957;-69
2021/11/15 10:53:11;;;;;;;45.33;26.65;;;;;;;10.39;60.91;101041.00;1716777;82;20923;-71
2021/11/15 10:55:46;;;;;;;51.70;29.20;;;;;;;10.32;61.92;101036.89;1716765;83;21451;-74
2021/11/15 10:58:23;;;;;;;140.82;39.92;;;;;;;10.37;61.46;101031.39;1716496;82;21022;-72
2021/11/15 11:00:54;;;;;;;69.58;29.50;;;;;;;10.30;61.21;101034.42;1712005;83;21518;-72
2021/11/15 11:03:22;;;;;;;57.62;28.77;;;;;;;10.03;60.51;101026.48;1725968;81;21431;-73
2021/11/15 11:05:52;;;;;;;62.48;30.60;;;;;;;9.72;61.68;101031.73;1728185;81;20972;-69
2021/11/15 11:08:27;;;;;;;298.57;65.85;;;;;;;9.38;62.05;101036.89;1721101;81;21517;-71
2021/11/15 11:11:00;;;;;;;67.25;30.30;;;;;;;9.01;63.04;101045.31;1723030;82;21002;-75
2021/11/15 11:13:32;;;;;;;;;;;;;;;8.79;64.02;101044.95;1722925;81;20946;-74
2021/11/15 11:16:01;;;;;;;63.38;32.95;;;;;;;8.79;64.75;101053.72;1710872;82;20088;-71
2021/11/15 11:18:39;;;;;;;66.15;35.10;;;;;;;8.81;65.28;101048.25;1718134;82;20962;-70
2021/11/15 11:21:29;;;;;;;75.22;40.78;;;;;;;8.82;64.97;101058.66;1700080;83;21644;-70